Time;durP1;ratioP1;P1;durP2;ratioP2;P2;SDS_P1;SDS_P2;PMS_P1;PMS_P2;Temp;Humidity;BMP_temperature;BMP_pressure;BME280_temperature;BME280_humidity;BME280_pressure;Samples;Min_cycle;Max_cycle;Signal;HPM_P1;HPM_P2
2023/07/25 00:01:20;;;;;;;;;;;24.30;63.10;;;;;;8500918;27;20394;-46
2023/07/25 00:05:21;;;;;;;;;;;24.30;63.20;;;;;;8482031;27;19918;-45
2023/07/25 00:09:21;;;;;;;;;;;24.30;63.00;;;;;;8500264;27;19918;-51
2023/07/25 00:13:22;;;;;;;;;;;24.30;63.50;;;;;;8512079;27;20272;-46
2023/07/25 00:17:22;;;;;;;;;;;24.20;63.40;;;;;;8530986;27;19929;-47
2023/07/25 00:21:23;;;;;;;;;;;24.20;63.10;;;;;;8530618;27;19911;-48
2023/07/25 00:25:24;;;;;;;;;;;24.10;63.50;;;;;;8521505;27;19911;-47
2023/07/25 00:29:24;;;;;;;;;;;24.10;63.50;;;;;;8497162;27;19911;-47
2023/07/25 00:33:25;;;;;;;;;;;24.10;63.50;;;;;;8497437;27;19919;-48
2023/07/25 00:37:27;;;;;;;;;;;24.10;63.50;;;;;;8497260;27;19918;-47
2023/07/25 00:41:28;;;;;;;;;;;24.10;63.50;;;;;;8497461;27;20337;-49
2023/07/25 00:45:29;;;;;;;;;;;24.10;63.40;;;;;;8497080;27;20283;-49
2023/07/25 00:49:30;;;;;;;;;;;24.10;63.40;;;;;;8496702;27;19960;-47
2023/07/25 00:53:31;;;;;;;;;;;24.00;63.40;;;;;;8497391;27;19907;-48
2023/07/25 00:57:32;;;;;;;;;;;24.00;63.40;;;;;;8496738;27;19911;-48
2023/07/25 01:01:32;;;;;;;;;;;24.00;63.40;;;;;;8496460;27;19914;-49
2023/07/25 01:05:33;;;;;;;;;;;24.00;63.40;;;;;;8496115;27;19912;-50
2023/07/25 01:09:38;;;;;;;;;;;24.00;63.50;;;;;;8495493;27;19912;-49
2023/07/25 01:13:39;;;;;;;;;;;24.00;63.50;;;;;;8477578;27;19923;-50
2023/07/25 01:17:40;;;;;;;;;;;23.90;63.40;;;;;;8495970;27;20019;-47
2023/07/25 01:21:40;;;;;;;;;;;23.90;63.40;;;;;;8495867;27;19964;-48
2023/07/25 01:25:41;;;;;;;;;;;23.90;63.40;;;;;;8477801;27;20536;-48
2023/07/25 01:29:41;;;;;;;;;;;23.90;63.40;;;;;;8496056;27;19912;-48
2023/07/25 01:33:42;;;;;;;;;;;23.90;63.50;;;;;;8495740;27;19911;-48
2023/07/25 01:37:42;;;;;;;;;;;23.90;63.50;;;;;;8495242;27;20002;-49
2023/07/25 01:41:43;;;;;;;;;;;23.90;63.40;;;;;;8476888;27;19919;-48
2023/07/25 01:45:44;;;;;;;;;;;23.90;63.50;;;;;;8495359;27;19919;-47
2023/07/25 01:49:44;;;;;;;;;;;23.90;63.50;;;;;;8494942;27;20432;-47
2023/07/25 01:53:45;;;;;;;;;;;23.90;63.50;;;;;;8476670;27;20542;-48
2023/07/25 01:57:45;;;;;;;;;;;23.90;63.50;;;;;;8476528;27;20010;-48
2023/07/25 02:01:46;;;;;;;;;;;23.90;63.50;;;;;;8494869;27;19908;-47
2023/07/25 02:05:46;;;;;;;;;;;23.90;64.30;;;;;;8494746;27;19911;-47
2023/07/25 02:09:47;;;;;;;;;;;23.90;63.50;;;;;;8476186;27;19915;-47
2023/07/25 02:13:47;;;;;;;;;;;23.80;63.50;;;;;;8476095;27;19924;-47
2023/07/25 02:17:49;;;;;;;;;;;23.80;63.50;;;;;;8494473;27;19915;-47
2023/07/25 02:21:49;;;;;;;;;;;23.90;63.60;;;;;;8501241;27;20333;-47
2023/07/25 02:25:50;;;;;;;;;;;23.90;63.60;;;;;;8487844;27;19915;-49
2023/07/25 02:29:50;;;;;;;;;;;23.80;63.60;;;;;;8505625;27;19912;-48
2023/07/25 02:33:51;;;;;;;;;;;23.80;63.60;;;;;;8521808;27;19912;-48
2023/07/25 02:37:51;;;;;;;;;;;23.80;63.60;;;;;;8505693;27;20300;-49
2023/07/25 02:41:52;;;;;;;;;;;23.80;63.60;;;;;;8505337;27;20002;-48
2023/07/25 02:45:52;;;;;;;;;;;23.80;63.60;;;;;;8505310;27;19955;-47
2023/07/25 02:49:53;;;;;;;;;;;23.80;63.60;;;;;;8505972;27;20324;-49
2023/07/25 02:53:53;;;;;;;;;;;23.80;63.60;;;;;;8505233;27;20056;-47
2023/07/25 02:57:54;;;;;;;;;;;23.80;63.60;;;;;;8505464;27;19915;-48
2023/07/25 03:01:54;;;;;;;;;;;23.80;63.60;;;;;;8505127;27;19907;-47
2023/07/25 03:05:55;;;;;;;;;;;23.80;63.60;;;;;;8504994;27;19912;-47
2023/07/25 03:09:56;;;;;;;;;;;23.80;63.50;;;;;;8505157;27;19955;-49
2023/07/25 03:13:56;;;;;;;;;;;23.80;63.50;;;;;;8504878;27;19923;-49
2023/07/25 03:17:57;;;;;;;;;;;23.80;63.60;;;;;;8504920;27;19961;-47
2023/07/25 03:21:57;;;;;;;;;;;23.80;63.60;;;;;;8504820;27;19912;-48
2023/07/25 03:25:58;;;;;;;;;;;23.80;63.60;;;;;;8505029;27;20288;-50
2023/07/25 03:29:59;;;;;;;;;;;23.80;63.60;;;;;;8504610;27;19919;-46
2023/07/25 03:33:59;;;;;;;;;;;23.80;63.60;;;;;;8499805;27;19920;-47
2023/07/25 03:38:00;;;;;;;;;;;23.80;63.60;;;;;;8498851;27;20403;-50
2023/07/25 03:42:01;;;;;;;;;;;23.80;63.70;;;;;;8499094;27;20369;-47
2023/07/25 03:46:02;;;;;;;;;;;23.80;63.70;;;;;;8480766;27;19919;-47
2023/07/25 03:50:03;;;;;;;;;;;23.80;63.70;;;;;;8498613;27;19946;-48
2023/07/25 03:54:06;;;;;;;;;;;23.80;63.70;;;;;;8498755;27;19919;-47
2023/07/25 03:58:07;;;;;;;;;;;23.70;63.60;;;;;;8498857;27;19912;-48
2023/07/25 04:02:07;;;;;;;;;;;23.70;63.50;;;;;;8480236;27;19915;-48
2023/07/25 04:06:08;;;;;;;;;;;23.70;63.50;;;;;;8498293;27;19950;-48
2023/07/25 04:10:09;;;;;;;;;;;23.80;63.60;;;;;;8498317;27;19919;-47
2023/07/25 04:14:09;;;;;;;;;;;23.80;63.60;;;;;;8498104;27;19931;-47
2023/07/25 04:18:10;;;;;;;;;;;23.80;63.60;;;;;;8498249;27;19919;-49
2023/07/25 04:22:10;;;;;;;;;;;23.70;63.50;;;;;;8497821;27;19930;-49
2023/07/25 04:26:11;;;;;;;;;;;23.80;63.60;;;;;;8498384;27;19915;-50
2023/07/25 04:30:11;;;;;;;;;;;23.80;63.60;;;;;;8513814;27;19911;-48
2023/07/25 04:34:12;;;;;;;;;;;23.70;63.60;;;;;;8479132;27;19911;-49
2023/07/25 04:38:13;;;;;;;;;;;23.70;63.60;;;;;;8497122;27;19922;-47
2023/07/25 04:42:13;;;;;;;;;;;23.70;63.50;;;;;;8497293;27;19911;-48
2023/07/25 04:46:14;;;;;;;;;;;23.70;63.50;;;;;;8496390;27;19996;-49
2023/07/25 04:50:14;;;;;;;;;;;23.70;63.50;;;;;;8496838;27;19912;-49
2023/07/25 04:54:15;;;;;;;;;;;23.70;63.50;;;;;;8496762;27;19912;-48
2023/07/25 04:58:15;;;;;;;;;;;23.70;63.60;;;;;;8496840;27;19922;-47
2023/07/25 05:02:17;;;;;;;;;;;23.70;63.60;;;;;;8478542;27;19911;-47
2023/07/25 05:06:17;;;;;;;;;;;23.70;63.60;;;;;;8496829;27;19915;-47
2023/07/25 05:10:18;;;;;;;;;;;23.70;63.60;;;;;;8496291;27;20364;-49
2023/07/25 05:14:18;;;;;;;;;;;23.70;63.60;;;;;;8495726;27;19923;-47
2023/07/25 05:18:19;;;;;;;;;;;23.70;63.50;;;;;;8495885;27;19923;-47
2023/07/25 05:22:20;;;;;;;;;;;23.70;63.50;;;;;;8495771;27;20447;-49
2023/07/25 05:26:20;;;;;;;;;;;23.70;63.50;;;;;;8496321;27;19919;-49
2023/07/25 05:30:21;;;;;;;;;;;23.70;63.50;;;;;;8495460;27;19919;-50
2023/07/25 05:34:21;;;;;;;;;;;23.70;63.50;;;;;;8495592;27;19918;-47
2023/07/25 05:38:22;;;;;;;;;;;23.70;63.50;;;;;;8495324;27;20330;-49
2023/07/25 05:42:22;;;;;;;;;;;23.70;63.50;;;;;;8495830;27;19928;-49
2023/07/25 05:46:23;;;;;;;;;;;23.70;63.50;;;;;;8495176;27;19911;-49
2023/07/25 05:50:23;;;;;;;;;;;23.70;63.50;;;;;;8495447;27;19961;-49
2023/07/25 05:54:24;;;;;;;;;;;23.70;63.50;;;;;;8476614;27;19911;-48
2023/07/25 05:58:24;;;;;;;;;;;23.70;63.50;;;;;;8494585;27;20292;-48
2023/07/25 06:02:25;;;;;;;;;;;23.70;63.50;;;;;;8494531;27;20077;-48
2023/07/25 06:06:26;;;;;;;;;;;23.70;63.50;;;;;;8494719;27;20487;-48
2023/07/25 06:10:26;;;;;;;;;;;23.70;63.50;;;;;;8494728;27;20365;-46
2023/07/25 06:14:27;;;;;;;;;;;23.70;63.50;;;;;;8494320;27;19928;-49
2023/07/25 06:18:27;;;;;;;;;;;23.70;63.50;;;;;;8525305;27;19915;-49
2023/07/25 06:22:28;;;;;;;;;;;23.70;63.60;;;;;;8528622;27;19907;-47
2023/07/25 06:26:28;;;;;;;;;;;23.70;63.50;;;;;;8510635;27;20012;-47
2023/07/25 06:30:29;;;;;;;;;;;23.70;63.50;;;;;;8494184;28;19919;-48
2023/07/25 06:34:29;;;;;;;;;;;23.70;63.40;;;;;;8516168;27;20391;-49
2023/07/25 06:38:30;;;;;;;;;;;23.70;63.50;;;;;;8528293;27;19919;-49
2023/07/25 06:42:31;;;;;;;;;;;23.70;63.50;;;;;;8528346;27;19911;-48
2023/07/25 06:46:32;;;;;;;;;;;23.70;63.40;;;;;;8528313;27;20016;-47
2023/07/25 06:50:33;;;;;;;;;;;23.70;63.40;;;;;;8527863;27;19923;-51
2023/07/25 06:54:33;;;;;;;;;;;23.70;63.50;;;;;;8526619;27;20563;-50
2023/07/25 06:58:34;;;;;;;;;;;23.70;63.50;;;;;;8493767;28;20470;-48
2023/07/25 07:02:34;;;;;;;;;;;23.70;63.40;;;;;;8493747;28;20519;-49
2023/07/25 07:06:35;;;;;;;;;;;23.70;63.40;;;;;;8493891;27;19912;-47
2023/07/25 07:10:35;;;;;;;;;;;23.70;63.30;;;;;;8499987;27;19946;-49
2023/07/25 07:14:36;;;;;;;;;;;23.70;63.30;;;;;;8499814;27;20373;-48
2023/07/25 07:18:36;;;;;;;;;;;23.70;63.40;;;;;;8481475;27;19915;-48
2023/07/25 07:22:37;;;;;;;;;;;23.70;63.40;;;;;;8499866;27;19911;-49
2023/07/25 07:26:37;;;;;;;;;;;23.70;63.30;;;;;;8499742;27;19912;-48
2023/07/25 07:30:38;;;;;;;;;;;23.70;63.40;;;;;;8499678;27;19912;-48
2023/07/25 07:34:38;;;;;;;;;;;23.70;63.40;;;;;;8481038;27;19912;-49
2023/07/25 07:38:39;;;;;;;;;;;23.70;63.30;;;;;;8515081;27;19915;-48
2023/07/25 07:42:39;;;;;;;;;;;23.70;63.40;;;;;;8481241;27;19995;-50
2023/07/25 07:46:40;;;;;;;;;;;23.70;63.30;;;;;;8498978;27;19916;-47
2023/07/25 07:50:42;;;;;;;;;;;23.70;63.40;;;;;;8498645;27;19919;-47
2023/07/25 07:54:43;;;;;;;;;;;23.70;63.30;;;;;;8499076;27;19907;-48
2023/07/25 07:58:43;;;;;;;;;;;23.70;63.30;;;;;;8498525;27;19923;-47
2023/07/25 08:02:44;;;;;;;;;;;23.70;63.30;;;;;;8479933;27;19962;-47
2023/07/25 08:06:45;;;;;;;;;;;23.70;63.40;;;;;;8498427;27;20283;-48
2023/07/25 08:10:45;;;;;;;;;;;23.70;63.30;;;;;;8479758;27;19993;-47
2023/07/25 08:14:46;;;;;;;;;;;23.70;63.30;;;;;;8497050;27;19963;-49
2023/07/25 08:18:46;;;;;;;;;;;23.70;63.30;;;;;;8463616;28;20258;-47
2023/07/25 08:22:47;;;;;;;;;;;23.70;63.30;;;;;;8496766;27;20018;-47
2023/07/25 08:26:47;;;;;;;;;;;23.70;63.30;;;;;;8464044;27;19993;-47
2023/07/25 08:30:48;;;;;;;;;;;23.70;63.30;;;;;;8464106;28;19911;-50
2023/07/25 08:34:48;;;;;;;;;;;23.70;64.00;;;;;;8463423;28;19997;-48
2023/07/25 08:38:49;;;;;;;;;;;23.70;63.30;;;;;;8463568;28;19919;-48
2023/07/25 08:42:50;;;;;;;;;;;23.70;63.20;;;;;;8463132;28;20377;-48
2023/07/25 08:46:51;;;;;;;;;;;23.70;63.30;;;;;;8496319;27;20368;-49
2023/07/25 08:50:54;;;;;;;;;;;23.70;63.20;;;;;;8463074;28;19912;-48
2023/07/25 08:54:55;;;;;;;;;;;23.70;63.20;;;;;;8463107;28;20010;-50
2023/07/25 08:58:56;;;;;;;;;;;23.70;63.20;;;;;;8462543;28;19916;-48
2023/07/25 09:02:57;;;;;;;;;;;23.70;63.20;;;;;;8462640;28;19916;-50
2023/07/25 09:06:59;;;;;;;;;;;23.70;63.10;;;;;;8462523;28;19907;-48
2023/07/25 09:10:59;;;;;;;;;;;23.70;63.20;;;;;;8462309;28;19923;-48
2023/07/25 09:15:00;;;;;;;;;;;23.70;63.20;;;;;;8483876;27;20018;-50
2023/07/25 09:19:01;;;;;;;;;;;23.70;63.20;;;;;;8495849;27;20372;-48
2023/07/25 09:23:03;;;;;;;;;;;23.70;63.20;;;;;;8496522;27;20348;-47
2023/07/25 09:27:04;;;;;;;;;;;23.70;63.20;;;;;;8477739;27;19911;-47
2023/07/25 09:31:05;;;;;;;;;;;23.70;63.20;;;;;;8494815;27;19942;-48
2023/07/25 09:35:06;;;;;;;;;;;23.70;63.20;;;;;;8495679;27;19912;-48
2023/07/25 09:39:08;;;;;;;;;;;23.70;63.30;;;;;;8495430;27;20360;-50
2023/07/25 09:43:09;;;;;;;;;;;23.70;63.20;;;;;;8495287;27;19915;-51
2023/07/25 09:47:09;;;;;;;;;;;23.70;63.30;;;;;;8495267;27;20464;-49
2023/07/25 09:51:11;;;;;;;;;;;23.70;63.20;;;;;;8495087;27;19915;-50
2023/07/25 09:55:11;;;;;;;;;;;23.70;63.30;;;;;;8476851;27;19998;-49
2023/07/25 09:59:12;;;;;;;;;;;23.70;63.30;;;;;;8494898;27;19923;-49
2023/07/25 10:03:13;;;;;;;;;;;23.60;63.20;;;;;;8476420;27;20040;-48
2023/07/25 10:07:13;;;;;;;;;;;23.70;63.30;;;;;;8494713;27;19912;-50
2023/07/25 10:11:14;;;;;;;;;;;23.60;63.20;;;;;;8494700;27;20424;-49
2023/07/25 10:15:15;;;;;;;;;;;23.70;63.30;;;;;;8458811;28;20352;-48
2023/07/25 10:19:15;;;;;;;;;;;23.60;63.30;;;;;;8460638;28;20022;-49
2023/07/25 10:23:16;;;;;;;;;;;23.60;63.20;;;;;;8460408;28;19957;-50
2023/07/25 10:27:18;;;;;;;;;;;23.70;63.30;;;;;;8460528;28;19912;-49
2023/07/25 10:31:23;;;;;;;;;;;23.60;63.20;;;;;;8460356;28;19951;-49
2023/07/25 10:35:39;;;;;;;;;;;23.70;63.30;;;;;;8459092;28;20318;-50
2023/07/25 10:39:39;;;;;;;;;;;23.70;63.30;;;;;;8460250;28;19911;-50
2023/07/25 10:43:46;;;;;;;;;;;23.70;63.30;;;;;;8465721;28;20585;-51
2023/07/25 10:47:48;;;;;;;;;;;23.70;63.20;;;;;;8466983;28;19960;-50
2023/07/25 10:51:50;;;;;;;;;;;23.70;63.10;;;;;;8466951;28;19912;-49
2023/07/25 10:56:02;;;;;;;;;;;23.70;63.10;;;;;;8466990;28;19908;-49
2023/07/25 11:00:04;;;;;;;;;;;23.70;63.10;;;;;;8466553;28;19919;-50
2023/07/25 11:04:23;;;;;;;;;;;23.70;63.10;;;;;;8466653;28;19918;-50
2023/07/25 11:13:02;;;;;;;;;;;23.70;63.10;;;;;;8471158;27;19979;-51
2023/07/25 11:17:02;;;;;;;;;;;23.70;63.20;;;;;;8499957;27;19912;-50
2023/07/25 11:21:04;;;;;;;;;;;23.70;63.20;;;;;;8481386;27;19927;-50
2023/07/25 11:25:05;;;;;;;;;;;23.70;63.10;;;;;;8500049;27;19912;-49
2023/07/25 11:29:07;;;;;;;;;;;23.70;63.10;;;;;;8499514;27;19908;-49
2023/07/25 11:33:07;;;;;;;;;;;23.70;63.20;;;;;;8480945;27;20573;-51
2023/07/25 11:37:11;;;;;;;;;;;23.70;63.10;;;;;;8499457;27;20003;-50
2023/07/25 11:41:11;;;;;;;;;;;23.70;63.10;;;;;;8499273;27;19926;-50
2023/07/25 11:45:13;;;;;;;;;;;23.70;63.10;;;;;;8499100;27;20384;-51
2023/07/25 11:49:14;;;;;;;;;;;23.70;63.10;;;;;;8499089;27;19918;-51
2023/07/25 11:53:15;;;;;;;;;;;23.70;63.20;;;;;;8497855;27;19915;-49
2023/07/25 11:57:16;;;;;;;;;;;23.70;63.10;;;;;;8499361;27;19946;-49
2023/07/25 12:01:18;;;;;;;;;;;23.70;63.10;;;;;;8498735;27;19922;-50
2023/07/25 12:05:26;;;;;;;;;;;23.70;63.10;;;;;;8498320;27;19912;-51
2023/07/25 12:09:28;;;;;;;;;;;23.70;63.10;;;;;;8498499;27;19950;-49
2023/07/25 12:13:28;;;;;;;;;;;23.70;63.10;;;;;;8497964;27;20353;-51
2023/07/25 12:17:42;;;;;;;;;;;23.70;63.10;;;;;;8498119;27;20296;-49
2023/07/25 12:21:44;;;;;;;;;;;23.70;63.10;;;;;;8497943;27;19919;-51
2023/07/25 12:25:44;;;;;;;;;;;23.70;63.10;;;;;;8509520;27;19915;-51
2023/07/25 12:29:45;;;;;;;;;;;23.70;63.10;;;;;;8532002;27;20001;-51
2023/07/25 12:33:47;;;;;;;;;;;23.70;63.10;;;;;;8531716;27;19960;-50
2023/07/25 12:37:48;;;;;;;;;;;23.70;63.10;;;;;;8531571;27;20383;-49
2023/07/25 12:41:48;;;;;;;;;;;23.70;63.10;;;;;;8531517;27;20287;-51
2023/07/25 12:45:49;;;;;;;;;;;23.70;63.10;;;;;;8531443;27;19918;-48
2023/07/25 12:49:49;;;;;;;;;;;23.60;63.10;;;;;;8530997;27;19911;-50
2023/07/25 12:53:50;;;;;;;;;;;23.70;63.20;;;;;;8531591;27;19914;-51
2023/07/25 12:57:50;;;;;;;;;;;23.70;63.10;;;;;;8501360;27;19915;-50
2023/07/25 13:01:51;;;;;;;;;;;23.70;63.10;;;;;;8478268;27;20018;-51
2023/07/25 13:05:52;;;;;;;;;;;23.70;63.10;;;;;;8495362;27;19907;-48
2023/07/25 13:09:56;;;;;;;;;;;23.70;63.10;;;;;;8496449;27;19912;-49
2023/07/25 13:13:56;;;;;;;;;;;23.70;63.10;;;;;;8496029;27;19923;-49
2023/07/25 13:17:57;;;;;;;;;;;23.70;63.10;;;;;;8477643;27;19915;-49
2023/07/25 13:21:57;;;;;;;;;;;23.70;63.10;;;;;;8495827;27;19911;-49
2023/07/25 13:25:58;;;;;;;;;;;23.70;63.10;;;;;;8496267;27;19911;-50
2023/07/25 13:29:58;;;;;;;;;;;23.70;63.10;;;;;;8495821;27;19912;-50
2023/07/25 13:33:59;;;;;;;;;;;23.70;63.10;;;;;;8495461;27;19912;-49
2023/07/25 13:37:59;;;;;;;;;;;23.70;63.10;;;;;;8495439;27;19908;-49
2023/07/25 13:42:00;;;;;;;;;;;23.70;63.10;;;;;;8495189;27;19911;-50
2023/07/25 13:46:01;;;;;;;;;;;23.70;63.00;;;;;;8495410;27;19920;-51
2023/07/25 13:50:02;;;;;;;;;;;23.70;63.00;;;;;;8495030;27;19926;-51
2023/07/25 13:54:03;;;;;;;;;;;23.70;63.00;;;;;;8495060;27;19911;-51
2023/07/25 13:58:04;;;;;;;;;;;23.70;63.00;;;;;;8496207;27;19926;-50
2023/07/25 14:02:04;;;;;;;;;;;23.70;63.10;;;;;;8495736;27;20006;-48
2023/07/25 14:06:05;;;;;;;;;;;23.70;63.00;;;;;;8476073;27;19911;-50
2023/07/25 14:10:06;;;;;;;;;;;23.70;63.00;;;;;;8494864;27;20341;-49
2023/07/25 14:14:06;;;;;;;;;;;23.70;63.10;;;;;;8494432;27;19947;-50
2023/07/25 14:18:07;;;;;;;;;;;23.70;63.00;;;;;;8510033;27;19942;-50
2023/07/25 14:22:08;;;;;;;;;;;23.60;62.90;;;;;;8494526;27;19911;-50
2023/07/25 14:26:08;;;;;;;;;;;23.70;63.00;;;;;;8494865;27;19915;-51
2023/07/25 14:30:09;;;;;;;;;;;23.70;63.00;;;;;;8494444;28;19920;-48
2023/07/25 14:34:09;;;;;;;;;;;23.70;63.00;;;;;;8494435;28;19908;-49
2023/07/25 14:38:10;;;;;;;;;;;23.70;63.00;;;;;;8494073;28;19918;-50
2023/07/25 14:42:10;;;;;;;;;;;23.60;63.00;;;;;;8494205;28;20285;-51
2023/07/25 14:46:11;;;;;;;;;;;23.60;63.00;;;;;;8494299;28;19916;-49
2023/07/25 14:50:11;;;;;;;;;;;23.60;63.00;;;;;;8493859;28;19912;-50
2023/07/25 14:54:12;;;;;;;;;;;23.70;63.00;;;;;;8475619;28;20467;-49
2023/07/25 14:58:13;;;;;;;;;;;23.70;63.00;;;;;;8494284;27;20376;-51
2023/07/25 15:02:13;;;;;;;;;;;23.70;63.00;;;;;;8493889;28;19908;-50
2023/07/25 15:06:14;;;;;;;;;;;23.70;62.90;;;;;;8493587;28;19907;-51
2023/07/25 15:10:14;;;;;;;;;;;23.70;62.90;;;;;;8475477;28;19912;-48
2023/07/25 15:14:15;;;;;;;;;;;23.70;63.00;;;;;;8493769;28;19919;-50
2023/07/25 15:18:15;;;;;;;;;;;23.70;62.80;;;;;;8493395;28;20265;-48
2023/07/25 15:22:16;;;;;;;;;;;23.60;62.90;;;;;;8493508;28;19934;-48
2023/07/25 15:26:17;;;;;;;;;;;23.60;62.80;;;;;;8493981;27;19912;-49
2023/07/25 15:30:18;;;;;;;;;;;23.70;62.90;;;;;;8497892;27;19907;-51
2023/07/25 15:34:18;;;;;;;;;;;23.70;62.90;;;;;;8499635;27;19908;-49
2023/07/25 15:38:19;;;;;;;;;;;23.70;62.90;;;;;;8499484;27;19994;-50
2023/07/25 15:42:19;;;;;;;;;;;23.70;63.70;;;;;;8515340;27;19911;-48
2023/07/25 15:46:20;;;;;;;;;;;23.70;62.90;;;;;;8499201;27;20348;-48
2023/07/25 15:50:22;;;;;;;;;;;23.60;62.80;;;;;;8498887;27;19919;-51
2023/07/25 15:54:23;;;;;;;;;;;23.60;62.80;;;;;;8480681;27;19908;-50
2023/07/25 15:58:23;;;;;;;;;;;23.60;61.70;;;;;;8529494;27;20009;-49
2023/07/25 16:02:24;;;;;;;;;;;23.60;61.20;;;;;;8513669;27;20264;-49
2023/07/25 16:06:28;;;;;;;;;;;23.60;60.70;;;;;;8531805;27;19963;-49
2023/07/25 16:10:29;;;;;;;;;;;23.60;60.10;;;;;;8532145;27;20011;-51
2023/07/25 16:14:30;;;;;;;;;;;23.60;59.90;;;;;;8531490;27;19923;-50
2023/07/25 16:18:30;;;;;;;;;;;23.50;59.50;;;;;;8532161;27;19915;-49
2023/07/25 16:22:31;;;;;;;;;;;23.50;58.40;;;;;;8533015;27;19964;-50
2023/07/25 16:26:31;;;;;;;;;;;23.40;58.60;;;;;;8513976;27;19918;-51
2023/07/25 16:30:32;;;;;;;;;;;23.50;58.50;;;;;;8498030;27;19907;-50
2023/07/25 16:34:34;;;;;;;;;;;23.50;58.50;;;;;;8479171;27;20401;-48
2023/07/25 16:38:34;;;;;;;;;;;23.50;58.20;;;;;;8513453;27;19967;-51
2023/07/25 16:42:36;;;;;;;;;;;23.50;58.20;;;;;;8531818;27;19907;-49
2023/07/25 16:46:36;;;;;;;;;;;23.50;58.20;;;;;;8531449;27;19911;-49
2023/07/25 16:50:37;;;;;;;;;;;23.50;58.10;;;;;;8531133;27;19911;-48
2023/07/25 16:54:37;;;;;;;;;;;23.40;57.70;;;;;;8529450;27;19964;-48
2023/07/25 16:58:38;;;;;;;;;;;23.40;58.00;;;;;;8496733;27;20362;-49
2023/07/25 17:02:38;;;;;;;;;;;23.40;57.70;;;;;;8496853;27;20333;-50
2023/07/25 17:06:39;;;;;;;;;;;23.40;57.40;;;;;;8496504;27;19960;-50
2023/07/25 17:10:39;;;;;;;;;;;23.40;57.70;;;;;;8497265;27;19987;-49
2023/07/25 17:14:40;;;;;;;;;;;23.40;57.50;;;;;;8496039;27;19934;-50
2023/07/25 17:18:40;;;;;;;;;;;23.40;57.40;;;;;;8495973;27;19922;-48
2023/07/25 17:22:41;;;;;;;;;;;23.30;57.10;;;;;;8495933;27;20380;-49
2023/07/25 17:26:42;;;;;;;;;;;23.30;57.10;;;;;;8496353;27;20006;-50
2023/07/25 17:30:42;;;;;;;;;;;23.30;56.60;;;;;;8495873;27;19911;-49
2023/07/25 17:34:43;;;;;;;;;;;23.30;56.90;;;;;;8495644;27;19912;-49
2023/07/25 17:38:43;;;;;;;;;;;23.30;56.60;;;;;;8495284;27;19915;-48
2023/07/25 17:42:44;;;;;;;;;;;23.30;56.40;;;;;;8495375;27;20152;-50
2023/07/25 17:46:45;;;;;;;;;;;23.30;56.70;;;;;;8511315;27;19911;-50
2023/07/25 17:50:46;;;;;;;;;;;23.30;56.10;;;;;;8511545;27;19973;-51
2023/07/25 17:54:47;;;;;;;;;;;23.30;56.10;;;;;;8494851;27;19911;-48
2023/07/25 17:58:47;;;;;;;;;;;23.30;56.10;;;;;;8494752;27;19968;-52
2023/07/25 18:02:48;;;;;;;;;;;23.30;56.00;;;;;;8525155;27;20280;-50
2023/07/25 18:06:48;;;;;;;;;;;23.40;56.20;;;;;;8528909;27;19958;-49
2023/07/25 18:10:50;;;;;;;;;;;23.50;56.60;;;;;;8502759;27;19912;-52
2023/07/25 18:14:51;;;;;;;;;;;23.60;57.10;;;;;;8509129;27;20020;-52
2023/07/25 18:18:52;;;;;;;;;;;23.70;57.10;;;;;;8507312;27;19927;-54
2023/07/25 18:22:52;;;;;;;;;;;23.70;57.10;;;;;;8521455;27;19943;-52
2023/07/25 18:26:53;;;;;;;;;;;23.80;57.50;;;;;;8495337;27;19919;-54
2023/07/25 18:30:53;;;;;;;;;;;23.80;57.70;;;;;;8494495;28;19907;-52
2023/07/25 18:34:54;;;;;;;;;;;23.80;58.00;;;;;;8513931;27;19915;-48
2023/07/25 18:38:55;;;;;;;;;;;23.80;58.00;;;;;;8526408;27;20409;-51
2023/07/25 18:42:55;;;;;;;;;;;23.80;58.00;;;;;;8527929;27;19915;-50
2023/07/25 18:46:56;;;;;;;;;;;23.90;58.30;;;;;;8528908;27;19907;-49
2023/07/25 18:50:56;;;;;;;;;;;23.90;58.20;;;;;;8528139;27;19911;-56
2023/07/25 18:54:57;;;;;;;;;;;23.90;58.40;;;;;;8511303;27;20002;-50
2023/07/25 18:58:57;;;;;;;;;;;24.00;58.60;;;;;;8493789;28;19923;-56
2023/07/25 19:02:58;;;;;;;;;;;24.00;58.60;;;;;;8504470;27;19936;-51
2023/07/25 19:06:58;;;;;;;;;;;24.00;58.60;;;;;;8503693;27;20493;-46
2023/07/25 19:10:59;;;;;;;;;;;24.00;59.30;;;;;;8534635;27;19907;-53
2023/07/25 19:15:00;;;;;;;;;;;23.90;59.50;;;;;;8555951;27;20005;-52
2023/07/25 19:19:00;;;;;;;;;;;23.90;60.10;;;;;;8554631;27;19919;-46
2023/07/25 19:23:01;;;;;;;;;;;23.90;59.90;;;;;;8534217;27;19907;-49
2023/07/25 19:27:01;;;;;;;;;;;23.90;59.20;;;;;;8511844;27;19923;-55
2023/07/25 19:31:03;;;;;;;;;;;23.90;59.10;;;;;;8481394;27;19956;-54
2023/07/25 19:35:04;;;;;;;;;;;23.90;60.20;;;;;;8508108;27;20299;-54
2023/07/25 19:39:04;;;;;;;;;;;24.00;60.90;;;;;;8533789;27;19958;-48
2023/07/25 19:43:05;;;;;;;;;;;24.00;60.90;;;;;;8533656;27;20014;-46
2023/07/25 19:47:05;;;;;;;;;;;24.00;61.00;;;;;;8515569;27;19919;-54
2023/07/25 19:51:13;;;;;;;;;;;24.00;60.70;;;;;;8522307;27;19911;-52
2023/07/25 19:55:13;;;;;;;;;;;24.10;62.30;;;;;;8506713;27;19964;-52
2023/07/25 19:59:15;;;;;;;;;;;24.10;62.50;;;;;;8497926;27;19968;-53
2023/07/25 20:03:15;;;;;;;;;;;24.10;62.10;;;;;;8497570;27;19915;-51
2023/07/25 20:07:16;;;;;;;;;;;24.10;61.90;;;;;;8498448;27;19912;-47
2023/07/25 20:11:16;;;;;;;;;;;24.10;61.90;;;;;;8480080;27;19911;-52
2023/07/25 20:15:17;;;;;;;;;;;24.10;62.20;;;;;;8521947;27;19915;-57
2023/07/25 20:19:19;;;;;;;;;;;24.10;61.60;;;;;;8521535;27;20288;-47
2023/07/25 20:23:19;;;;;;;;;;;24.10;61.90;;;;;;8525935;27;20374;-50
2023/07/25 20:27:20;;;;;;;;;;;24.10;62.20;;;;;;8525302;27;19938;-48
2023/07/25 20:31:20;;;;;;;;;;;24.10;62.40;;;;;;8525639;27;19999;-50
2023/07/25 20:35:21;;;;;;;;;;;24.10;61.90;;;;;;8524845;27;19922;-52
2023/07/25 20:39:22;;;;;;;;;;;24.10;62.00;;;;;;8514123;27;20435;-48
2023/07/25 20:43:22;;;;;;;;;;;24.10;61.80;;;;;;8524451;27;19923;-48
2023/07/25 20:47:23;;;;;;;;;;;24.20;62.20;;;;;;8504280;27;19908;-50
2023/07/25 20:51:23;;;;;;;;;;;24.10;62.10;;;;;;8495811;27;19947;-49
2023/07/25 20:55:24;;;;;;;;;;;24.10;62.20;;;;;;8497016;27;20372;-49
2023/07/25 20:59:24;;;;;;;;;;;24.10;62.30;;;;;;8517420;27;20265;-50
2023/07/25 21:03:26;;;;;;;;;;;24.10;61.70;;;;;;8498254;27;20277;-48
2023/07/25 21:07:26;;;;;;;;;;;24.10;62.10;;;;;;8489912;27;19918;-49
2023/07/25 21:11:27;;;;;;;;;;;24.10;62.50;;;;;;8522377;27;20309;-50
2023/07/25 21:15:27;;;;;;;;;;;24.10;62.30;;;;;;8499111;27;19934;-53
2023/07/25 21:19:28;;;;;;;;;;;24.10;62.80;;;;;;8515104;27;20495;-49
2023/07/25 21:23:28;;;;;;;;;;;24.10;62.80;;;;;;8498702;27;19916;-53
2023/07/25 21:27:29;;;;;;;;;;;24.20;62.80;;;;;;8515053;27;19918;-52
2023/07/25 21:31:30;;;;;;;;;;;24.10;62.70;;;;;;8503853;27;20295;-50
2023/07/25 21:35:32;;;;;;;;;;;24.10;63.80;;;;;;8511189;27;20400;-52
2023/07/25 21:39:33;;;;;;;;;;;24.20;65.20;;;;;;8511624;27;20036;-47
2023/07/25 21:43:33;;;;;;;;;;;24.20;64.00;;;;;;8512293;27;19919;-50
2023/07/25 21:47:34;;;;;;;;;;;24.30;64.50;;;;;;8525179;27;19919;-51
2023/07/25 21:51:34;;;;;;;;;;;24.20;64.20;;;;;;8526329;27;19927;-51
2023/07/25 21:55:35;;;;;;;;;;;24.20;64.10;;;;;;8525178;27;19923;-54
2023/07/25 21:59:35;;;;;;;;;;;24.20;64.40;;;;;;8525689;27;19968;-52
2023/07/25 22:03:36;;;;;;;;;;;24.30;63.90;;;;;;8524962;27;19919;-52
2023/07/25 22:07:38;;;;;;;;;;;24.30;63.90;;;;;;8524033;27;20364;-52
2023/07/25 22:11:39;;;;;;;;;;;24.30;64.00;;;;;;8524301;27;19938;-51
2023/07/25 22:15:39;;;;;;;;;;;24.20;64.10;;;;;;8511419;27;19933;-56
2023/07/25 22:19:40;;;;;;;;;;;24.20;63.70;;;;;;8507508;27;19919;-51
2023/07/25 22:23:40;;;;;;;;;;;24.20;63.30;;;;;;8507858;27;19907;-50
2023/07/25 22:27:41;;;;;;;;;;;24.20;63.40;;;;;;8507684;27;19941;-49
2023/07/25 22:31:43;;;;;;;;;;;24.10;63.20;;;;;;8507869;27;19925;-50
2023/07/25 22:35:44;;;;;;;;;;;24.10;63.00;;;;;;8507090;27;19958;-50
2023/07/25 22:39:45;;;;;;;;;;;24.20;63.20;;;;;;8513148;27;19923;-50
2023/07/25 22:43:45;;;;;;;;;;;24.10;63.20;;;;;;8513835;27;19935;-50
2023/07/25 22:47:46;;;;;;;;;;;24.20;63.60;;;;;;8513777;27;20591;-48
2023/07/25 22:51:46;;;;;;;;;;;24.20;63.60;;;;;;8512238;27;20281;-52
2023/07/25 22:55:47;;;;;;;;;;;24.20;64.40;;;;;;8512356;27;19919;-56
2023/07/25 22:59:47;;;;;;;;;;;24.30;64.30;;;;;;8513077;27;19935;-51
2023/07/25 23:03:48;;;;;;;;;;;24.30;64.40;;;;;;8513285;27;19915;-53
2023/07/25 23:07:48;;;;;;;;;;;24.20;62.50;;;;;;8514206;27;19961;-51
2023/07/25 23:11:49;;;;;;;;;;;24.00;61.60;;;;;;8513939;27;19911;-54
2023/07/25 23:15:49;;;;;;;;;;;24.10;61.80;;;;;;8513240;27;19931;-51
2023/07/25 23:19:50;;;;;;;;;;;24.10;61.50;;;;;;8514560;27;19966;-52
2023/07/25 23:23:50;;;;;;;;;;;24.20;61.60;;;;;;8494531;27;19914;-57